createdAt,value
2018-05-11T00:00:55.227Z,2.17
2018-05-11T00:04:01.346Z,2.10
2018-05-11T00:07:08.539Z,2.40
2018-05-11T00:10:14.761Z,2.17
2018-05-11T00:13:20.580Z,1.90
2018-05-11T00:16:26.729Z,2.33
2018-05-11T00:19:32.556Z,1.60
2018-05-11T00:22:39.641Z,2.50
2018-05-11T00:25:45.729Z,1.73
2018-05-11T00:28:51.000Z,2.00
2018-05-11T00:31:56.168Z,2.10
2018-05-11T00:35:01.378Z,2.17
2018-05-11T00:38:06.610Z,1.90
2018-05-11T00:41:11.816Z,1.97
2018-05-11T00:44:17.030Z,3.17
2018-05-11T00:47:22.232Z,2.03
2018-05-11T00:50:28.108Z,2.00
2018-05-11T00:53:32.996Z,2.17
2018-05-11T00:56:39.131Z,1.70
2018-05-11T00:59:45.673Z,1.70
2018-05-11T01:02:52.417Z,1.70
2018-05-11T01:05:58.060Z,2.10
2018-05-11T01:09:03.380Z,1.70
2018-05-11T01:12:09.287Z,1.63
2018-05-11T01:15:15.375Z,2.10
2018-05-11T01:18:22.543Z,1.57
2018-05-11T01:21:28.252Z,1.53
2018-05-11T01:24:33.652Z,2.10
2018-05-11T01:27:39.798Z,1.63
2018-05-11T01:30:46.157Z,1.77
2018-05-11T01:33:52.082Z,1.40
2018-05-11T01:36:57.296Z,1.57
2018-05-11T01:40:02.500Z,1.50
2018-05-11T01:43:08.611Z,1.63
2018-05-11T01:46:14.725Z,1.80
2018-05-11T01:49:20.341Z,1.93
2018-05-11T01:52:25.548Z,1.17
2018-05-11T01:55:30.758Z,1.43
2018-05-11T01:58:35.978Z,1.50
2018-05-11T02:01:41.922Z,1.53
2018-05-11T02:04:48.973Z,1.63
2018-05-11T02:07:55.726Z,1.73
2018-05-11T02:11:01.379Z,2.50
2018-05-11T02:14:07.316Z,2.23
2018-05-11T02:17:13.430Z,1.80
2018-05-11T02:20:19.545Z,1.90
2018-05-11T02:23:25.348Z,2.43
2018-05-11T02:26:32.193Z,1.70
2018-05-11T02:29:38.068Z,1.40
2018-05-11T02:32:43.279Z,2.10
2018-05-11T02:35:49.430Z,2.20
2018-05-11T02:38:54.865Z,1.60
2018-05-11T02:41:59.877Z,1.90
2018-05-11T02:45:05.361Z,1.70
2018-05-11T02:48:11.482Z,1.60
2018-05-11T02:51:16.353Z,1.80
2018-05-11T02:54:21.571Z,2.20
2018-05-11T02:57:27.705Z,2.67
2018-05-11T03:00:33.339Z,2.27
2018-05-11T03:03:38.603Z,2.10
2018-05-11T03:06:44.479Z,2.63
2018-05-11T03:09:50.522Z,2.53
2018-05-11T03:12:56.039Z,2.90
2018-05-11T03:16:02.422Z,2.93
2018-05-11T03:19:09.113Z,2.60
2018-05-11T03:22:14.800Z,3.13
2018-05-11T03:25:20.044Z,2.83
2018-05-11T03:28:25.705Z,2.60
2018-05-11T03:31:32.002Z,2.60
2018-05-11T03:34:37.696Z,2.70
2018-05-11T03:37:42.913Z,3.20
2018-05-11T03:40:49.060Z,2.77
2018-05-11T03:43:56.230Z,3.23
2018-05-11T03:47:02.998Z,2.77
2018-05-11T03:50:08.502Z,3.00
2018-05-11T03:53:13.712Z,3.03
2018-05-11T03:56:18.913Z,3.10
2018-05-11T03:59:24.160Z,2.87
2018-05-11T04:02:41.477Z,3.07
2018-05-11T04:05:58.116Z,4.00
2018-05-11T04:09:03.209Z,3.40
2018-05-11T04:12:09.074Z,3.80
2018-05-11T04:15:15.909Z,3.03
2018-05-11T04:18:22.975Z,3.27
2018-05-11T04:21:29.990Z,2.90
2018-05-11T04:24:36.162Z,3.10
2018-05-11T04:27:42.070Z,2.70
2018-05-11T04:30:48.245Z,3.43
2018-05-11T04:33:54.369Z,3.50
2018-05-11T04:36:59.659Z,4.53
2018-05-11T04:40:04.743Z,3.63
2018-05-11T04:43:10.601Z,2.90
2018-05-11T04:46:16.773Z,3.53
2018-05-11T04:49:22.154Z,3.03
2018-05-11T04:52:27.361Z,3.30
2018-05-11T04:55:32.298Z,3.30
2018-05-11T04:58:37.526Z,3.33
2018-05-11T05:01:42.738Z,2.90
2018-05-11T05:04:48.747Z,2.93
2018-05-11T05:07:55.060Z,2.70
2018-05-11T05:11:01.591Z,2.53
2018-05-11T05:14:07.879Z,3.00
2018-05-11T05:17:14.013Z,3.47
2018-05-11T05:20:18.901Z,3.20
2018-05-11T05:23:25.040Z,2.93
2018-05-11T05:26:30.841Z,3.37
2018-05-11T05:29:36.064Z,3.47
2018-05-11T05:32:42.395Z,3.27
2018-05-11T05:35:47.616Z,3.83
2018-05-11T05:38:54.728Z,3.77
2018-05-11T05:42:00.557Z,4.37
2018-05-11T05:45:06.290Z,4.03
2018-05-11T05:48:12.435Z,3.33
2018-05-11T05:51:18.605Z,3.63
2018-05-11T05:54:24.762Z,4.00
2018-05-11T05:57:30.801Z,4.57
2018-05-11T06:00:36.042Z,3.93
2018-05-11T06:03:42.079Z,3.63
2018-05-11T06:06:48.878Z,3.87
2018-05-11T06:09:55.960Z,4.20
2018-05-11T06:13:02.090Z,4.40
2018-05-11T06:16:09.189Z,3.80
2018-05-11T06:19:15.329Z,3.60
2018-05-11T06:22:21.477Z,3.73
2018-05-11T06:25:27.513Z,3.60
2018-05-11T06:28:33.453Z,4.33
2018-05-11T06:31:40.430Z,4.10
2018-05-11T06:34:46.466Z,3.97
2018-05-11T06:37:52.407Z,4.23
2018-05-11T06:40:57.629Z,4.20
2018-05-11T06:44:02.851Z,4.40
2018-05-11T06:47:07.784Z,4.43
2018-05-11T06:50:13.082Z,4.17
2018-05-11T06:53:18.285Z,4.60
2018-05-11T06:56:25.225Z,4.53
2018-05-11T06:59:31.069Z,4.70
2018-05-11T07:02:38.144Z,4.80
2018-05-11T07:05:44.281Z,4.70
2018-05-11T07:08:51.235Z,4.00
2018-05-11T07:11:58.004Z,3.73
2018-05-11T07:15:03.889Z,3.70
2018-05-11T07:18:09.928Z,4.53
2018-05-11T07:21:14.912Z,3.90
2018-05-11T07:24:21.055Z,3.83
2018-05-11T07:27:25.978Z,4.23
2018-05-11T07:30:32.338Z,4.10
2018-05-11T07:33:38.439Z,3.70
2018-05-11T07:36:44.061Z,4.07
2018-05-11T07:39:50.199Z,3.83
2018-05-11T07:42:56.439Z,4.43
2018-05-11T07:46:02.597Z,3.53
2018-05-11T07:49:07.995Z,3.53
2018-05-11T07:52:13.205Z,3.67
2018-05-11T07:55:18.417Z,3.53
2018-05-11T07:58:24.146Z,3.70
2018-05-11T08:01:30.062Z,3.40
2018-05-11T08:04:36.829Z,3.20
2018-05-11T08:07:42.965Z,3.30
2018-05-11T08:10:50.138Z,3.63
2018-05-11T08:13:56.153Z,3.53
2018-05-11T08:17:02.311Z,3.80
2018-05-11T08:20:08.501Z,3.77
2018-05-11T08:23:14.662Z,3.20
2018-05-11T08:26:20.085Z,3.90
2018-05-11T08:29:25.339Z,3.93
2018-05-11T08:32:30.749Z,2.80
2018-05-11T08:35:36.075Z,3.33
2018-05-11T08:38:43.008Z,3.37
2018-05-11T08:41:49.169Z,3.40
2018-05-11T08:44:54.368Z,3.43
2018-05-11T08:48:00.413Z,2.67
2018-05-11T08:51:06.445Z,2.67
2018-05-11T08:54:13.578Z,3.00
2018-05-11T08:57:19.146Z,3.53
2018-05-11T09:00:25.398Z,3.50
2018-05-11T09:03:30.808Z,3.40
2018-05-11T09:06:36.950Z,2.90
2018-05-11T09:09:43.090Z,2.60
2018-05-11T09:12:49.974Z,3.17
2018-05-11T09:15:56.086Z,2.73
2018-05-11T09:19:02.027Z,3.10
2018-05-11T09:22:07.331Z,2.97
2018-05-11T09:25:13.500Z,3.47
2018-05-11T09:28:19.362Z,2.53
2018-05-11T09:31:25.497Z,2.70
2018-05-11T09:34:32.455Z,3.17
2018-05-11T09:37:39.481Z,3.10
2018-05-11T09:40:46.570Z,2.80
2018-05-11T09:43:52.653Z,2.73
2018-05-11T09:46:57.938Z,2.67
2018-05-11T09:50:04.961Z,2.90
2018-05-11T09:53:11.098Z,2.40
2018-05-11T09:56:16.287Z,3.50
2018-05-11T09:59:21.493Z,3.27
2018-05-11T10:02:26.717Z,2.70
2018-05-11T10:05:32.478Z,2.67
2018-05-11T10:08:37.691Z,2.00
2018-05-11T10:11:44.597Z,2.20
2018-05-11T10:14:50.421Z,1.80
2018-05-11T10:17:56.543Z,2.20
2018-05-11T10:21:03.129Z,1.90
2018-05-11T10:24:08.395Z,2.20
2018-05-11T10:27:14.100Z,2.60
2018-05-11T10:30:20.229Z,2.60
2018-05-11T10:33:25.171Z,2.13
2018-05-11T10:36:31.126Z,1.70
2018-05-11T10:39:36.342Z,2.43
2018-05-11T10:42:42.666Z,2.30
2018-05-11T10:45:48.540Z,2.40
2018-05-11T10:48:54.808Z,1.90
2018-05-11T10:52:01.009Z,1.97
2018-05-11T10:55:07.118Z,2.63
2018-05-11T10:58:13.295Z,2.47
2018-05-11T11:01:18.220Z,2.27
2018-05-11T11:04:23.947Z,2.10
2018-05-11T11:07:30.090Z,2.30
2018-05-11T11:10:36.230Z,2.17
2018-05-11T11:13:42.391Z,2.47
2018-05-11T11:16:49.559Z,2.57
2018-05-11T11:19:56.617Z,3.03
2018-05-11T11:23:02.898Z,2.53
2018-05-11T11:26:08.651Z,2.57
2018-05-11T11:29:14.673Z,2.40
2018-05-11T11:32:19.915Z,2.40
2018-05-11T11:35:25.137Z,2.30
2018-05-11T11:38:31.271Z,2.10
2018-05-11T11:41:36.877Z,3.07
2018-05-11T11:44:42.096Z,2.50
2018-05-11T11:47:47.321Z,2.83
2018-05-11T11:50:53.042Z,3.10
2018-05-11T11:53:58.262Z,3.47
2018-05-11T11:57:03.529Z,6.43
2018-05-11T12:00:09.630Z,3.60
2018-05-11T12:03:15.751Z,3.10
2018-05-11T12:06:22.743Z,3.00
2018-05-11T12:09:28.892Z,3.60
2018-05-11T12:12:34.129Z,2.77
2018-05-11T12:15:40.306Z,2.70
2018-05-11T12:18:46.219Z,2.50
2018-05-11T12:21:52.346Z,2.37
2018-05-11T12:24:58.081Z,2.80
2018-05-11T12:28:03.296Z,2.40
2018-05-11T12:31:09.173Z,2.60
2018-05-11T12:34:15.021Z,2.67
2018-05-11T12:37:20.369Z,2.53
2018-05-11T12:40:25.582Z,3.03
2018-05-11T12:43:31.891Z,2.50
2018-05-11T12:46:37.619Z,2.57
2018-05-11T12:49:43.551Z,2.43
2018-05-11T12:52:50.340Z,2.70
2018-05-11T12:55:56.109Z,2.30
2018-05-11T12:59:01.333Z,2.67
2018-05-11T13:02:07.516Z,2.80
2018-05-11T13:05:13.306Z,2.40
2018-05-11T13:08:19.517Z,3.03
2018-05-11T13:11:24.745Z,3.00
2018-05-11T13:14:30.378Z,2.40
2018-05-11T13:17:36.554Z,2.83
2018-05-11T13:20:42.552Z,2.80
2018-05-11T13:23:47.889Z,2.57
2018-05-11T13:26:53.781Z,3.17
2018-05-11T13:30:00.615Z,2.60
2018-05-11T13:33:06.472Z,2.53
2018-05-11T13:36:11.415Z,2.93
2018-05-11T13:39:16.830Z,2.40
2018-05-11T13:42:22.945Z,3.20
2018-05-11T13:45:28.161Z,2.63
2018-05-11T13:48:33.598Z,2.70
2018-05-11T13:51:39.038Z,2.43
2018-05-11T13:54:45.164Z,2.77
2018-05-11T13:57:51.328Z,2.40
2018-05-11T14:00:56.914Z,2.20
2018-05-11T14:04:03.129Z,2.47
2018-05-11T14:07:08.344Z,2.60
2018-05-11T14:10:14.572Z,2.70
2018-05-11T14:13:19.910Z,2.60
2018-05-11T14:16:25.121Z,2.93
2018-05-11T14:19:30.839Z,3.30
2018-05-11T14:22:36.075Z,3.00
2018-05-11T14:25:41.278Z,2.67
2018-05-11T14:28:46.257Z,3.10
2018-05-11T14:31:51.531Z,3.10
2018-05-11T14:34:56.881Z,3.07
2018-05-11T14:38:03.042Z,3.50
2018-05-11T14:41:09.007Z,3.27
2018-05-11T14:44:13.985Z,3.20
2018-05-11T14:47:18.869Z,2.90
2018-05-11T14:50:24.265Z,3.30
2018-05-11T14:53:29.246Z,2.80
2018-05-11T14:56:35.173Z,3.20
2018-05-11T14:59:42.219Z,3.30
2018-05-11T15:02:48.487Z,3.20
2018-05-11T15:05:54.690Z,3.00
2018-05-11T15:08:59.897Z,3.30
2018-05-11T15:12:05.101Z,2.97
2018-05-11T15:15:11.121Z,3.20
2018-05-11T15:18:16.999Z,3.27
2018-05-11T15:21:23.154Z,2.60
2018-05-11T15:24:29.338Z,3.07
2018-05-11T15:27:35.465Z,4.03
2018-05-11T15:30:41.617Z,3.00
2018-05-11T15:33:46.550Z,3.00
2018-05-11T15:36:52.038Z,3.23
2018-05-11T15:39:58.165Z,3.30
2018-05-11T15:43:03.954Z,3.37
2018-05-11T15:46:09.521Z,3.33
2018-05-11T15:49:14.929Z,3.50
2018-05-11T15:52:22.060Z,3.60
2018-05-11T15:55:28.794Z,3.97
2018-05-11T15:58:34.950Z,2.80
2018-05-11T16:01:41.086Z,3.40
2018-05-11T16:04:47.246Z,3.27
2018-05-11T16:07:52.247Z,3.07
2018-05-11T16:10:58.459Z,3.17
2018-05-11T16:14:04.582Z,4.13
2018-05-11T16:17:10.701Z,3.70
2018-05-11T16:20:16.446Z,3.33
2018-05-11T16:23:21.658Z,2.57
2018-05-11T16:26:27.847Z,2.90
2018-05-11T16:29:33.973Z,2.73
2018-05-11T16:32:40.647Z,2.77
2018-05-11T16:35:47.749Z,3.10
2018-05-11T16:38:53.895Z,2.20
2018-05-11T16:41:59.617Z,3.07
2018-05-11T16:45:04.623Z,3.00
2018-05-11T16:48:09.836Z,2.60
2018-05-11T16:51:15.647Z,2.63
2018-05-11T16:54:21.854Z,2.60
2018-05-11T16:57:27.100Z,2.53
2018-05-11T17:00:32.329Z,2.70
2018-05-11T17:03:37.526Z,2.60
2018-05-11T17:06:43.157Z,2.60
2018-05-11T17:09:48.409Z,2.13
2018-05-11T17:12:53.593Z,2.20
2018-05-11T17:15:58.842Z,2.60
2018-05-11T17:19:04.128Z,2.23
2018-05-11T17:22:09.386Z,1.83
2018-05-11T17:25:14.597Z,2.43
2018-05-11T17:28:20.731Z,2.47
2018-05-11T17:31:26.901Z,2.37
2018-05-11T17:34:32.118Z,2.30
2018-05-11T17:37:37.351Z,2.30
2018-05-11T17:40:43.523Z,2.57
2018-05-11T17:43:48.739Z,2.53
2018-05-11T17:46:54.489Z,2.00
2018-05-11T17:49:59.734Z,2.73
2018-05-11T17:53:04.956Z,2.90
2018-05-11T17:56:09.928Z,3.50
2018-05-11T17:59:15.939Z,2.87
2018-05-11T18:02:22.654Z,3.10
2018-05-11T18:05:28.833Z,3.97
2018-05-11T18:08:34.705Z,3.63
2018-05-11T18:11:40.122Z,3.83
2018-05-11T18:14:45.325Z,3.63
2018-05-11T18:17:50.565Z,4.30
2018-05-11T18:20:55.498Z,3.83
2018-05-11T18:24:02.404Z,4.27
2018-05-11T18:27:08.429Z,4.27
2018-05-11T18:30:14.573Z,3.90
2018-05-11T18:33:20.457Z,3.70
2018-05-11T18:36:26.615Z,3.50
2018-05-11T18:39:32.761Z,3.40
2018-05-11T18:42:38.881Z,3.63
2018-05-11T18:45:45.015Z,3.80
2018-05-11T18:48:50.229Z,3.57
2018-05-11T18:51:55.221Z,3.63
2018-05-11T18:55:01.254Z,3.90
2018-05-11T18:58:07.373Z,3.23
2018-05-11T19:01:12.577Z,2.77
2018-05-11T19:04:17.798Z,2.60
2018-05-11T19:07:23.214Z,2.93
2018-05-11T19:10:28.627Z,2.80
2018-05-11T19:13:34.350Z,2.10
2018-05-11T19:16:41.396Z,2.37
2018-05-11T19:19:47.513Z,1.93
2018-05-11T19:22:54.274Z,1.83
2018-05-11T19:26:00.393Z,2.17
2018-05-11T19:29:08.323Z,1.60
2018-05-11T19:32:14.342Z,1.60
2018-05-11T19:35:19.322Z,1.50
2018-05-11T19:38:24.309Z,1.90
2018-05-11T19:41:30.531Z,1.87
2018-05-11T19:44:36.337Z,2.20
2018-05-11T19:47:41.569Z,2.10
2018-05-11T19:50:47.294Z,1.60
2018-05-11T19:53:53.796Z,1.73
2018-05-11T19:56:59.663Z,1.80
2018-05-11T20:00:04.358Z,2.00
2018-05-11T20:03:09.570Z,1.20
2018-05-11T20:06:15.293Z,1.50
2018-05-11T20:09:21.834Z,1.80
2018-05-11T20:12:27.960Z,1.30
2018-05-11T20:15:33.178Z,1.27
2018-05-11T20:18:39.301Z,1.10
2018-05-11T20:21:45.454Z,1.43
2018-05-11T20:24:52.535Z,1.73
2018-05-11T20:27:58.768Z,1.40
2018-05-11T20:31:04.926Z,1.70
2018-05-11T20:34:10.146Z,1.43
2018-05-11T20:37:16.377Z,1.23
2018-05-11T20:40:22.355Z,1.30
2018-05-11T20:43:27.573Z,1.20
2018-05-11T20:46:32.549Z,1.20
2018-05-11T20:49:39.131Z,1.17
2018-05-11T20:52:45.267Z,1.53
2018-05-11T20:55:50.688Z,1.10
2018-05-11T20:58:57.927Z,1.00
2018-05-11T21:02:04.055Z,1.30
2018-05-11T21:05:10.909Z,1.77
2018-05-11T21:08:17.956Z,1.67
2018-05-11T21:11:23.361Z,1.40
2018-05-11T21:14:29.531Z,1.50
2018-05-11T21:17:34.902Z,1.77
2018-05-11T21:20:39.816Z,1.43
2018-05-11T21:23:45.739Z,1.40
2018-05-11T21:26:50.942Z,1.30
2018-05-11T21:29:57.164Z,1.83
2018-05-11T21:33:03.920Z,1.30
2018-05-11T21:36:10.022Z,1.70
2018-05-11T21:39:15.597Z,1.90
2018-05-11T21:42:20.827Z,1.50
2018-05-11T21:45:26.027Z,1.70
2018-05-11T21:48:30.961Z,1.67
2018-05-11T21:51:36.869Z,1.60
2018-05-11T21:54:43.347Z,1.10
2018-05-11T21:57:48.280Z,1.53
2018-05-11T22:00:54.503Z,2.03
2018-05-11T22:04:00.393Z,1.53
2018-05-11T22:07:06.579Z,1.27
2018-05-11T22:10:12.188Z,1.63
2018-05-11T22:13:17.147Z,1.77
2018-05-11T22:16:22.389Z,1.37
2018-05-11T22:19:28.249Z,1.70
2018-05-11T22:22:33.611Z,1.50
2018-05-11T22:25:39.473Z,1.53
2018-05-11T22:28:44.911Z,1.57
2018-05-11T22:31:50.746Z,2.07
2018-05-11T22:34:56.085Z,1.60
2018-05-11T22:38:02.226Z,1.80
2018-05-11T22:41:09.007Z,1.60
2018-05-11T22:44:14.969Z,1.17
2018-05-11T22:47:21.714Z,1.60
2018-05-11T22:50:27.349Z,1.53
2018-05-11T22:53:32.338Z,1.67
2018-05-11T22:56:37.549Z,1.50
2018-05-11T22:59:43.434Z,1.40
2018-05-11T23:02:49.569Z,1.50
2018-05-11T23:05:55.510Z,1.67
2018-05-11T23:09:01.642Z,1.10
2018-05-11T23:12:07.296Z,1.67
2018-05-11T23:15:12.934Z,1.20
2018-05-11T23:18:19.711Z,1.80
2018-05-11T23:21:25.894Z,1.13
2018-05-11T23:24:31.501Z,1.53
2018-05-11T23:27:37.661Z,1.40
2018-05-11T23:30:43.802Z,1.40
2018-05-11T23:33:49.645Z,1.80
2018-05-11T23:36:55.793Z,1.37
2018-05-11T23:40:01.009Z,1.40
2018-05-11T23:43:06.850Z,1.70
2018-05-11T23:46:13.420Z,1.50
2018-05-11T23:49:19.559Z,1.40
2018-05-11T23:52:24.733Z,1.20
2018-05-11T23:55:29.951Z,1.40
2018-05-11T23:58:34.841Z,1.50
